createdAt,value
2019-05-01T00:05:02.968Z,4.80
2019-05-01T00:10:11.032Z,4.70
2019-05-01T00:15:23.360Z,4.70
2019-05-01T00:20:30.773Z,4.50
2019-05-01T00:25:37.915Z,4.50
2019-05-01T00:30:45.301Z,4.40
2019-05-01T00:35:52.485Z,4.30
2019-05-01T00:41:01.096Z,4.30
2019-05-01T00:46:08.384Z,4.20
2019-05-01T00:51:15.475Z,4.10
2019-05-01T00:56:29.595Z,4.00
2019-05-01T01:01:58.691Z,3.90
2019-05-01T01:07:06.355Z,3.80
2019-05-01T01:12:13.661Z,3.70
2019-05-01T01:17:21.097Z,3.60
2019-05-01T01:22:28.271Z,3.60
2019-05-01T01:27:37.193Z,3.50
2019-05-01T01:32:44.671Z,3.40
2019-05-01T01:37:52.058Z,3.30
2019-05-01T01:43:20.024Z,3.30
2019-05-01T01:48:27.529Z,3.20
2019-05-01T01:53:35.214Z,3.20
2019-05-01T01:58:43.986Z,3.10
2019-05-01T02:03:55.636Z,3.20
2019-05-01T02:09:03.228Z,3.10
2019-05-01T02:14:11.957Z,3.00
2019-05-01T02:19:19.072Z,2.90
2019-05-01T02:24:26.344Z,2.90
2019-05-01T02:29:40.397Z,2.80
2019-05-01T02:34:50.198Z,2.70
2019-05-01T02:39:59.437Z,2.60
2019-05-01T02:45:07.913Z,2.50
2019-05-01T02:50:16.092Z,2.40
2019-05-01T02:55:29.436Z,2.40
2019-05-01T03:00:36.596Z,2.30
2019-05-01T03:05:44.159Z,2.30
2019-05-01T03:10:51.653Z,2.30
2019-05-01T03:16:00.428Z,2.20
2019-05-01T03:21:31.557Z,2.20
2019-05-01T03:26:38.807Z,2.10
2019-05-01T03:32:12.969Z,2.00
2019-05-01T03:36:55.088Z,2.00
2019-05-01T03:42:02.190Z,2.10
2019-05-01T03:47:09.485Z,2.20
2019-05-01T03:52:16.853Z,2.20
2019-05-01T03:57:24.310Z,2.40
2019-05-01T04:02:38.613Z,2.50
2019-05-01T04:07:46.273Z,2.60
2019-05-01T04:12:53.529Z,2.70
2019-05-01T04:18:03.099Z,2.90
2019-05-01T04:23:12.355Z,3.10
2019-05-01T04:28:32.222Z,3.30
2019-05-01T04:33:40.788Z,3.40
2019-05-01T04:38:48.386Z,3.60
2019-05-01T04:43:55.497Z,3.80
2019-05-01T04:49:03.194Z,3.90
2019-05-01T04:54:10.509Z,4.10
2019-05-01T04:59:17.886Z,4.20
2019-05-01T05:04:25.579Z,4.40
2019-05-01T05:09:58.300Z,4.60
2019-05-01T05:15:30.989Z,4.80
2019-05-01T05:20:38.465Z,5.00
2019-05-01T05:25:46.071Z,5.20
2019-05-01T05:30:54.774Z,5.40
2019-05-01T05:36:04.539Z,5.70
2019-05-01T05:41:12.551Z,6.00
2019-05-01T05:46:20.740Z,6.30
2019-05-01T05:51:40.228Z,6.60
2019-05-01T05:56:54.284Z,6.90
2019-05-01T06:02:26.640Z,7.10
2019-05-01T06:07:45.921Z,7.60
2019-05-01T06:13:12.209Z,8.20
2019-05-01T06:18:30.489Z,8.50
2019-05-01T06:23:45.665Z,8.80
2019-05-01T06:28:55.986Z,9.20
2019-05-01T06:34:03.519Z,9.90
2019-05-01T06:39:11.976Z,10.50
2019-05-01T06:44:39.874Z,11.00
2019-05-01T06:50:09.208Z,11.30
2019-05-01T06:55:16.244Z,11.60
2019-05-01T07:00:23.674Z,11.70
2019-05-01T07:05:31.587Z,11.80
2019-05-01T07:10:44.244Z,12.30
2019-05-01T07:15:47.671Z,12.50
2019-05-01T07:20:57.900Z,12.80
2019-05-01T07:26:10.033Z,13.00
2019-05-01T07:31:16.217Z,13.20
2019-05-01T07:36:23.401Z,13.60
2019-05-01T07:41:33.963Z,13.90
2019-05-01T07:47:02.890Z,14.20
2019-05-01T07:52:12.519Z,14.60
2019-05-01T07:57:22.758Z,14.80
2019-05-01T08:02:31.151Z,14.80
2019-05-01T08:07:38.008Z,14.90
2019-05-01T08:12:45.323Z,15.20
2019-05-01T08:17:54.340Z,15.50
2019-05-01T08:23:01.454Z,15.60
2019-05-01T08:28:16.959Z,15.80
2019-05-01T08:33:54.913Z,16.00
2019-05-01T08:39:04.984Z,16.00
2019-05-01T08:44:12.401Z,15.70
2019-05-01T08:49:50.894Z,15.70
2019-05-01T08:54:58.229Z,16.00
2019-05-01T09:00:06.420Z,16.50
2019-05-01T09:05:27.771Z,16.60
2019-05-01T09:10:23.270Z,17.10
2019-05-01T09:15:30.564Z,17.20
2019-05-01T09:20:39.359Z,17.30
2019-05-01T09:26:14.636Z,17.50
2019-05-01T09:31:21.487Z,17.50
2019-05-01T09:36:28.633Z,17.70
2019-05-01T09:41:38.275Z,18.20
2019-05-01T09:46:45.594Z,18.20
2019-05-01T09:52:23.541Z,18.30
2019-05-01T09:57:30.755Z,18.20
2019-05-01T10:02:42.083Z,18.50
2019-05-01T10:07:46.627Z,19.20
2019-05-01T10:12:53.642Z,19.80
2019-05-01T10:18:01.716Z,20.40
2019-05-01T10:23:13.233Z,20.80
2019-05-01T10:28:38.996Z,20.20
2019-05-01T10:33:47.872Z,20.00
2019-05-01T10:38:55.146Z,20.40
2019-05-01T10:44:02.129Z,20.50
2019-05-01T10:49:18.707Z,20.40
2019-05-01T10:54:30.630Z,20.80
2019-05-01T10:59:37.980Z,21.00
2019-05-01T11:04:45.302Z,20.70
2019-05-01T11:09:52.687Z,20.70
2019-05-01T11:14:59.752Z,21.20
2019-05-01T11:20:07.956Z,21.60
2019-05-01T11:25:18.405Z,21.80
2019-05-01T11:30:26.043Z,21.80
2019-05-01T11:36:02.979Z,21.20
2019-05-01T11:41:09.207Z,21.60
2019-05-01T11:46:16.696Z,22.40
2019-05-01T11:51:23.901Z,21.50
2019-05-01T11:56:31.019Z,20.90
2019-05-01T12:01:38.144Z,21.00
2019-05-01T12:06:45.704Z,21.40
2019-05-01T12:11:55.531Z,21.00
2019-05-01T12:17:27.831Z,20.60
2019-05-01T12:22:34.949Z,19.80
2019-05-01T12:27:42.955Z,19.40
2019-05-01T12:32:50.135Z,19.10
2019-05-01T12:37:59.841Z,18.90
2019-05-01T12:43:06.840Z,18.50
2019-05-01T12:48:14.097Z,18.30
2019-05-01T12:53:25.610Z,18.10
2019-05-01T12:58:33.059Z,18.10
2019-05-01T13:03:40.165Z,17.90
2019-05-01T13:08:47.373Z,17.20
2019-05-01T13:13:55.385Z,16.60
2019-05-01T13:19:02.454Z,16.30
2019-05-01T13:24:09.643Z,16.00
2019-05-01T13:29:35.810Z,15.90
2019-05-01T13:34:43.019Z,15.80
2019-05-01T13:39:50.448Z,15.60
2019-05-01T13:44:58.674Z,15.60
2019-05-01T13:50:07.278Z,15.90
2019-05-01T13:55:15.397Z,15.90
2019-05-01T14:00:23.494Z,15.60
2019-05-01T14:05:30.686Z,15.20
2019-05-01T14:10:37.762Z,15.00
2019-05-01T14:15:44.949Z,14.70
2019-05-01T14:21:11.410Z,14.20
2019-05-01T14:26:18.723Z,13.90
2019-05-01T14:31:26.765Z,13.60
2019-05-01T14:36:34.147Z,13.20
2019-05-01T14:41:41.156Z,12.90
2019-05-01T14:46:48.345Z,12.40
2019-05-01T14:51:55.451Z,12.20
2019-05-01T14:57:04.239Z,11.90
2019-05-01T15:02:11.398Z,11.50
2019-05-01T15:07:18.524Z,11.10
2019-05-01T15:12:25.660Z,10.90
2019-05-01T15:17:45.383Z,10.80
2019-05-01T15:22:52.579Z,10.60
2019-05-01T15:27:59.816Z,10.50
2019-05-01T15:33:06.963Z,10.50
2019-05-01T15:38:14.136Z,10.60
2019-05-01T15:43:30.173Z,10.70
2019-05-01T15:48:37.277Z,10.80
2019-05-01T15:53:45.061Z,10.90
2019-05-01T15:58:52.205Z,10.90
2019-05-01T16:04:11.571Z,10.90
2019-05-01T16:09:40.440Z,10.90
2019-05-01T16:14:57.724Z,10.90
2019-05-01T16:20:23.825Z,10.90
2019-05-01T16:25:37.993Z,10.90
2019-05-01T16:30:45.140Z,11.00
2019-05-01T16:35:52.455Z,11.00
2019-05-01T16:41:04.079Z,11.00
2019-05-01T16:46:11.126Z,11.00
2019-05-01T16:51:18.241Z,11.00
2019-05-01T16:56:25.308Z,10.90
2019-05-01T17:01:55.308Z,11.00
2019-05-01T17:07:24.359Z,11.00
2019-05-01T17:12:35.701Z,10.90
2019-05-01T17:17:43.825Z,11.00
2019-05-01T17:22:51.935Z,11.00
2019-05-01T17:28:02.752Z,11.00
2019-05-01T17:33:08.025Z,11.00
2019-05-01T17:38:15.155Z,11.00
2019-05-01T17:43:23.444Z,10.90
2019-05-01T17:48:33.601Z,10.90
2019-05-01T17:53:39.420Z,10.80
2019-05-01T17:58:46.480Z,10.70
2019-05-01T18:04:07.717Z,10.60
2019-05-01T18:09:15.783Z,10.60
2019-05-01T18:14:22.873Z,10.60
2019-05-01T18:19:30.185Z,10.50
2019-05-01T18:24:58.406Z,10.50
2019-05-01T18:30:09.552Z,10.40
2019-05-01T18:35:16.826Z,10.30
2019-05-01T18:40:34.038Z,10.30
2019-05-01T18:46:00.626Z,10.30
2019-05-01T18:51:07.781Z,10.20
2019-05-01T18:56:15.099Z,10.20
2019-05-01T19:01:22.415Z,10.10
2019-05-01T19:06:40.618Z,10.00
2019-05-01T19:11:38.960Z,9.90
2019-05-01T19:16:47.160Z,9.90
2019-05-01T19:21:54.457Z,9.80
2019-05-01T19:27:01.698Z,9.80
2019-05-01T19:32:08.957Z,9.80
2019-05-01T19:37:16.383Z,9.70
2019-05-01T19:42:24.838Z,9.70
2019-05-01T19:47:32.425Z,9.60
2019-05-01T19:52:40.557Z,9.60
2019-05-01T19:57:47.826Z,9.50
2019-05-01T20:02:59.051Z,9.60
2019-05-01T20:08:03.705Z,9.60
2019-05-01T20:13:12.040Z,9.50
2019-05-01T20:18:19.740Z,9.50
2019-05-01T20:23:31.495Z,9.60
2019-05-01T20:28:37.381Z,9.50
2019-05-01T20:33:44.742Z,9.40
2019-05-01T20:38:51.921Z,9.40
2019-05-01T20:43:59.028Z,9.40
2019-05-01T20:49:06.669Z,9.40
2019-05-01T20:54:14.031Z,9.40
2019-05-01T20:59:21.420Z,9.40
2019-05-01T21:04:50.935Z,9.40
2019-05-01T21:09:59.243Z,9.40
2019-05-01T21:15:06.488Z,9.40
2019-05-01T21:20:13.787Z,9.40
2019-05-01T21:25:21.275Z,9.40
2019-05-01T21:30:28.381Z,9.40
2019-05-01T21:35:35.329Z,9.40
2019-05-01T21:40:43.866Z,9.40
2019-05-01T21:45:53.039Z,9.40
2019-05-01T21:51:03.319Z,9.40
2019-05-01T21:56:08.737Z,9.40
2019-05-01T22:01:15.911Z,9.40
2019-05-01T22:06:23.198Z,9.40
2019-05-01T22:11:33.173Z,9.40
2019-05-01T22:16:40.623Z,9.40
2019-05-01T22:22:00.985Z,9.50
2019-05-01T22:27:11.770Z,9.50
2019-05-01T22:32:32.502Z,9.50
2019-05-01T22:37:40.210Z,9.50
2019-05-01T22:42:47.411Z,9.50
2019-05-01T22:47:54.475Z,9.50
2019-05-01T22:53:01.456Z,9.50
2019-05-01T22:58:08.785Z,9.50
2019-05-01T23:03:23.303Z,9.50
2019-05-01T23:08:30.489Z,9.40
2019-05-01T23:13:37.948Z,9.40
2019-05-01T23:18:46.968Z,9.40
2019-05-01T23:23:56.728Z,9.40
2019-05-01T23:29:02.845Z,9.40
2019-05-01T23:34:09.936Z,9.40
2019-05-01T23:39:16.982Z,9.40
2019-05-01T23:44:24.034Z,9.40
2019-05-01T23:49:31.087Z,9.40
2019-05-01T23:54:38.243Z,9.40
2019-05-01T23:59:45.623Z,9.30
